sensor_id;sensor_type;location;lat;lon;timestamp;P1;durP1;ratioP1;P2;durP2;ratioP2
11827;SDS011;5971;49.646;8.568;2022-12-05T00:02:10;8.15;;;4.80;;
11827;SDS011;5971;49.646;8.568;2022-12-05T00:05:12;8.40;;;4.80;;
11827;SDS011;5971;49.646;8.568;2022-12-05T00:08:13;5.10;;;3.45;;
11827;SDS011;5971;49.646;8.568;2022-12-05T00:11:16;10.63;;;3.95;;
11827;SDS011;5971;49.646;8.568;2022-12-05T00:14:17;7.43;;;4.13;;
11827;SDS011;5971;49.646;8.568;2022-12-05T00:17:19;7.70;;;4.43;;
11827;SDS011;5971;49.646;8.568;2022-12-05T00:20:20;7.57;;;4.30;;
11827;SDS011;5971;49.646;8.568;2022-12-05T00:23:21;8.23;;;4.55;;
11827;SDS011;5971;49.646;8.568;2022-12-05T00:26:23;9.82;;;3.83;;
11827;SDS011;5971;49.646;8.568;2022-12-05T00:29:24;7.05;;;4.35;;
11827;SDS011;5971;49.646;8.568;2022-12-05T00:32:27;9.40;;;3.55;;
11827;SDS011;5971;49.646;8.568;2022-12-05T00:35:28;11.63;;;4.35;;
11827;SDS011;5971;49.646;8.568;2022-12-05T00:38:29;6.43;;;3.70;;
11827;SDS011;5971;49.646;8.568;2022-12-05T00:41:31;10.55;;;4.35;;
11827;SDS011;5971;49.646;8.568;2022-12-05T00:44:32;8.20;;;3.85;;
11827;SDS011;5971;49.646;8.568;2022-12-05T00:47:34;10.20;;;5.05;;
11827;SDS011;5971;49.646;8.568;2022-12-05T00:50:36;7.43;;;3.58;;
11827;SDS011;5971;49.646;8.568;2022-12-05T00:53:37;8.98;;;5.22;;
11827;SDS011;5971;49.646;8.568;2022-12-05T00:56:39;8.75;;;3.35;;
11827;SDS011;5971;49.646;8.568;2022-12-05T00:59:40;9.45;;;4.28;;
11827;SDS011;5971;49.646;8.568;2022-12-05T01:02:41;10.63;;;4.72;;
11827;SDS011;5971;49.646;8.568;2022-12-05T01:05:43;6.47;;;2.97;;
11827;SDS011;5971;49.646;8.568;2022-12-05T01:08:45;8.25;;;3.92;;
11827;SDS011;5971;49.646;8.568;2022-12-05T01:11:47;7.50;;;4.03;;
11827;SDS011;5971;49.646;8.568;2022-12-05T01:14:48;10.75;;;3.70;;
11827;SDS011;5971;49.646;8.568;2022-12-05T01:17:49;10.27;;;4.05;;
11827;SDS011;5971;49.646;8.568;2022-12-05T01:20:51;9.55;;;4.15;;
11827;SDS011;5971;49.646;8.568;2022-12-05T01:23:52;9.73;;;4.00;;
11827;SDS011;5971;49.646;8.568;2022-12-05T01:26:54;7.70;;;4.35;;
11827;SDS011;5971;49.646;8.568;2022-12-05T01:29:56;6.38;;;4.00;;
11827;SDS011;5971;49.646;8.568;2022-12-05T01:32:58;12.23;;;6.20;;
11827;SDS011;5971;49.646;8.568;2022-12-05T01:36:00;10.70;;;4.93;;
11827;SDS011;5971;49.646;8.568;2022-12-05T01:39:01;8.98;;;4.60;;
11827;SDS011;5971;49.646;8.568;2022-12-05T01:42:03;9.63;;;4.85;;
11827;SDS011;5971;49.646;8.568;2022-12-05T01:45:12;10.75;;;4.35;;
11827;SDS011;5971;49.646;8.568;2022-12-05T01:48:25;7.53;;;3.47;;
11827;SDS011;5971;49.646;8.568;2022-12-05T01:51:28;7.80;;;3.35;;
11827;SDS011;5971;49.646;8.568;2022-12-05T01:54:30;7.80;;;5.03;;
11827;SDS011;5971;49.646;8.568;2022-12-05T01:57:31;11.07;;;4.45;;
11827;SDS011;5971;49.646;8.568;2022-12-05T02:00:33;4.93;;;3.17;;
11827;SDS011;5971;49.646;8.568;2022-12-05T02:03:34;8.00;;;3.70;;
11827;SDS011;5971;49.646;8.568;2022-12-05T02:06:37;11.43;;;5.03;;
11827;SDS011;5971;49.646;8.568;2022-12-05T02:09:39;7.47;;;3.95;;
11827;SDS011;5971;49.646;8.568;2022-12-05T02:12:40;8.90;;;5.45;;
11827;SDS011;5971;49.646;8.568;2022-12-05T02:15:44;14.30;;;4.57;;
11827;SDS011;5971;49.646;8.568;2022-12-05T02:19:01;11.82;;;3.90;;
11827;SDS011;5971;49.646;8.568;2022-12-05T02:28:32;5.05;;;3.17;;
11827;SDS011;5971;49.646;8.568;2022-12-05T02:31:36;9.18;;;4.70;;
11827;SDS011;5971;49.646;8.568;2022-12-05T02:34:52;11.27;;;5.13;;
11827;SDS011;5971;49.646;8.568;2022-12-05T02:38:02;9.98;;;5.68;;
11827;SDS011;5971;49.646;8.568;2022-12-05T02:44:20;12.65;;;4.32;;
11827;SDS011;5971;49.646;8.568;2022-12-05T02:47:24;9.02;;;4.05;;
11827;SDS011;5971;49.646;8.568;2022-12-05T02:50:30;11.43;;;4.75;;
11827;SDS011;5971;49.646;8.568;2022-12-05T02:53:33;11.30;;;5.13;;
11827;SDS011;5971;49.646;8.568;2022-12-05T02:56:35;10.57;;;4.40;;
11827;SDS011;5971;49.646;8.568;2022-12-05T02:59:37;13.70;;;5.78;;
11827;SDS011;5971;49.646;8.568;2022-12-05T03:02:38;10.15;;;4.40;;
11827;SDS011;5971;49.646;8.568;2022-12-05T03:09:06;9.90;;;3.95;;
11827;SDS011;5971;49.646;8.568;2022-12-05T03:12:10;10.95;;;5.07;;
11827;SDS011;5971;49.646;8.568;2022-12-05T03:15:17;7.53;;;4.05;;
11827;SDS011;5971;49.646;8.568;2022-12-05T03:18:23;8.48;;;3.90;;
11827;SDS011;5971;49.646;8.568;2022-12-05T03:24:27;9.77;;;4.07;;
11827;SDS011;5971;49.646;8.568;2022-12-05T03:27:36;4.85;;;3.30;;
11827;SDS011;5971;49.646;8.568;2022-12-05T03:30:41;9.45;;;4.32;;
11827;SDS011;5971;49.646;8.568;2022-12-05T03:33:44;10.75;;;4.18;;
11827;SDS011;5971;49.646;8.568;2022-12-05T03:36:48;7.25;;;3.90;;
11827;SDS011;5971;49.646;8.568;2022-12-05T03:39:52;8.98;;;4.80;;
11827;SDS011;5971;49.646;8.568;2022-12-05T03:42:58;12.25;;;4.85;;
11827;SDS011;5971;49.646;8.568;2022-12-05T03:46:03;11.50;;;4.50;;
11827;SDS011;5971;49.646;8.568;2022-12-05T03:52:22;8.52;;;5.13;;
11827;SDS011;5971;49.646;8.568;2022-12-05T03:55:24;10.30;;;3.17;;
11827;SDS011;5971;49.646;8.568;2022-12-05T03:58:29;9.85;;;4.22;;
11827;SDS011;5971;49.646;8.568;2022-12-05T04:01:31;10.15;;;4.18;;
11827;SDS011;5971;49.646;8.568;2022-12-05T04:04:35;7.47;;;4.40;;
11827;SDS011;5971;49.646;8.568;2022-12-05T04:07:38;10.73;;;5.13;;
11827;SDS011;5971;49.646;8.568;2022-12-05T04:10:42;11.05;;;4.20;;
11827;SDS011;5971;49.646;8.568;2022-12-05T04:13:54;12.00;;;4.15;;
11827;SDS011;5971;49.646;8.568;2022-12-05T04:16:59;14.43;;;6.30;;
11827;SDS011;5971;49.646;8.568;2022-12-05T04:20:08;8.85;;;4.45;;
11827;SDS011;5971;49.646;8.568;2022-12-05T04:23:29;8.07;;;3.45;;
11827;SDS011;5971;49.646;8.568;2022-12-05T04:26:30;11.32;;;4.00;;
11827;SDS011;5971;49.646;8.568;2022-12-05T04:29:33;9.48;;;4.70;;
11827;SDS011;5971;49.646;8.568;2022-12-05T04:32:39;11.35;;;4.70;;
11827;SDS011;5971;49.646;8.568;2022-12-05T04:35:44;7.03;;;3.55;;
11827;SDS011;5971;49.646;8.568;2022-12-05T04:38:57;12.38;;;4.68;;
11827;SDS011;5971;49.646;8.568;2022-12-05T04:42:07;9.32;;;3.83;;
11827;SDS011;5971;49.646;8.568;2022-12-05T04:45:10;11.43;;;4.18;;
11827;SDS011;5971;49.646;8.568;2022-12-05T04:48:13;10.32;;;5.45;;
11827;SDS011;5971;49.646;8.568;2022-12-05T04:51:18;12.20;;;4.80;;
11827;SDS011;5971;49.646;8.568;2022-12-05T04:54:26;13.07;;;4.90;;
11827;SDS011;5971;49.646;8.568;2022-12-05T04:57:30;16.05;;;4.65;;
11827;SDS011;5971;49.646;8.568;2022-12-05T05:00:35;15.32;;;5.97;;
11827;SDS011;5971;49.646;8.568;2022-12-05T05:06:57;12.82;;;4.95;;
11827;SDS011;5971;49.646;8.568;2022-12-05T05:09:59;11.63;;;5.47;;
11827;SDS011;5971;49.646;8.568;2022-12-05T05:13:00;8.55;;;4.38;;
11827;SDS011;5971;49.646;8.568;2022-12-05T05:16:02;11.02;;;5.07;;
11827;SDS011;5971;49.646;8.568;2022-12-05T05:19:04;10.52;;;5.72;;
11827;SDS011;5971;49.646;8.568;2022-12-05T05:22:05;9.73;;;5.47;;
11827;SDS011;5971;49.646;8.568;2022-12-05T05:25:06;10.55;;;5.18;;
11827;SDS011;5971;49.646;8.568;2022-12-05T05:28:08;13.77;;;4.38;;
11827;SDS011;5971;49.646;8.568;2022-12-05T05:31:09;10.10;;;5.50;;
11827;SDS011;5971;49.646;8.568;2022-12-05T05:34:11;9.57;;;4.72;;
11827;SDS011;5971;49.646;8.568;2022-12-05T05:37:12;10.60;;;4.03;;
11827;SDS011;5971;49.646;8.568;2022-12-05T05:40:14;7.18;;;4.57;;
11827;SDS011;5971;49.646;8.568;2022-12-05T05:43:15;10.85;;;4.43;;
11827;SDS011;5971;49.646;8.568;2022-12-05T05:46:17;15.23;;;6.07;;
11827;SDS011;5971;49.646;8.568;2022-12-05T05:49:19;14.60;;;6.18;;
11827;SDS011;5971;49.646;8.568;2022-12-05T05:52:20;18.15;;;5.18;;
11827;SDS011;5971;49.646;8.568;2022-12-05T05:55:22;10.88;;;4.47;;
11827;SDS011;5971;49.646;8.568;2022-12-05T05:58:23;9.32;;;5.00;;
11827;SDS011;5971;49.646;8.568;2022-12-05T06:01:24;8.95;;;5.35;;
11827;SDS011;5971;49.646;8.568;2022-12-05T06:04:26;11.93;;;4.95;;
11827;SDS011;5971;49.646;8.568;2022-12-05T06:07:27;10.63;;;4.55;;
11827;SDS011;5971;49.646;8.568;2022-12-05T06:10:29;11.38;;;5.05;;
11827;SDS011;5971;49.646;8.568;2022-12-05T06:13:30;15.07;;;6.07;;
11827;SDS011;5971;49.646;8.568;2022-12-05T06:16:32;22.33;;;9.57;;
11827;SDS011;5971;49.646;8.568;2022-12-05T06:19:33;10.98;;;5.60;;
11827;SDS011;5971;49.646;8.568;2022-12-05T06:22:34;11.35;;;5.15;;
11827;SDS011;5971;49.646;8.568;2022-12-05T06:25:36;9.18;;;5.32;;
11827;SDS011;5971;49.646;8.568;2022-12-05T06:28:37;12.07;;;5.68;;
11827;SDS011;5971;49.646;8.568;2022-12-05T06:31:40;9.02;;;3.70;;
11827;SDS011;5971;49.646;8.568;2022-12-05T06:34:41;8.35;;;4.03;;
11827;SDS011;5971;49.646;8.568;2022-12-05T06:37:43;11.32;;;6.20;;
11827;SDS011;5971;49.646;8.568;2022-12-05T06:40:45;8.50;;;4.22;;
11827;SDS011;5971;49.646;8.568;2022-12-05T06:43:46;10.90;;;5.10;;
11827;SDS011;5971;49.646;8.568;2022-12-05T06:46:47;10.88;;;5.35;;
11827;SDS011;5971;49.646;8.568;2022-12-05T06:49:49;17.50;;;5.03;;
11827;SDS011;5971;49.646;8.568;2022-12-05T06:52:50;13.38;;;3.88;;
11827;SDS011;5971;49.646;8.568;2022-12-05T06:55:58;16.00;;;6.18;;
11827;SDS011;5971;49.646;8.568;2022-12-05T06:58:59;12.88;;;4.10;;
11827;SDS011;5971;49.646;8.568;2022-12-05T07:02:01;10.75;;;4.47;;
11827;SDS011;5971;49.646;8.568;2022-12-05T07:05:03;10.02;;;5.43;;
11827;SDS011;5971;49.646;8.568;2022-12-05T07:08:04;13.77;;;4.70;;
11827;SDS011;5971;49.646;8.568;2022-12-05T07:11:06;14.10;;;5.53;;
11827;SDS011;5971;49.646;8.568;2022-12-05T07:14:07;12.98;;;6.53;;
11827;SDS011;5971;49.646;8.568;2022-12-05T07:17:24;8.88;;;4.40;;
11827;SDS011;5971;49.646;8.568;2022-12-05T07:20:26;11.43;;;4.40;;
11827;SDS011;5971;49.646;8.568;2022-12-05T07:23:47;7.43;;;3.88;;
11827;SDS011;5971;49.646;8.568;2022-12-05T07:26:50;7.93;;;3.40;;
11827;SDS011;5971;49.646;8.568;2022-12-05T07:29:51;9.40;;;3.45;;
11827;SDS011;5971;49.646;8.568;2022-12-05T07:32:52;11.48;;;4.53;;
11827;SDS011;5971;49.646;8.568;2022-12-05T07:36:00;6.80;;;3.92;;
11827;SDS011;5971;49.646;8.568;2022-12-05T07:39:02;10.20;;;3.42;;
11827;SDS011;5971;49.646;8.568;2022-12-05T07:42:03;10.40;;;4.75;;
11827;SDS011;5971;49.646;8.568;2022-12-05T07:45:05;8.10;;;3.80;;
11827;SDS011;5971;49.646;8.568;2022-12-05T07:48:06;8.00;;;4.18;;
11827;SDS011;5971;49.646;8.568;2022-12-05T07:51:08;10.10;;;4.30;;
11827;SDS011;5971;49.646;8.568;2022-12-05T07:54:10;12.38;;;4.80;;
11827;SDS011;5971;49.646;8.568;2022-12-05T07:57:11;9.50;;;4.63;;
11827;SDS011;5971;49.646;8.568;2022-12-05T08:00:12;16.77;;;5.85;;
11827;SDS011;5971;49.646;8.568;2022-12-05T08:03:14;7.20;;;4.00;;
11827;SDS011;5971;49.646;8.568;2022-12-05T08:06:16;5.68;;;3.30;;
11827;SDS011;5971;49.646;8.568;2022-12-05T08:09:18;12.90;;;4.85;;
11827;SDS011;5971;49.646;8.568;2022-12-05T08:12:19;12.07;;;4.70;;
11827;SDS011;5971;49.646;8.568;2022-12-05T08:15:20;11.80;;;5.80;;
11827;SDS011;5971;49.646;8.568;2022-12-05T08:18:22;13.10;;;5.00;;
11827;SDS011;5971;49.646;8.568;2022-12-05T08:21:27;16.38;;;4.65;;
11827;SDS011;5971;49.646;8.568;2022-12-05T08:24:29;12.40;;;5.15;;
11827;SDS011;5971;49.646;8.568;2022-12-05T08:27:30;12.30;;;5.18;;
11827;SDS011;5971;49.646;8.568;2022-12-05T08:30:32;19.45;;;4.88;;
11827;SDS011;5971;49.646;8.568;2022-12-05T08:33:33;18.30;;;5.50;;
11827;SDS011;5971;49.646;8.568;2022-12-05T08:36:35;12.85;;;4.40;;
11827;SDS011;5971;49.646;8.568;2022-12-05T08:39:36;17.77;;;6.47;;
11827;SDS011;5971;49.646;8.568;2022-12-05T08:42:39;11.07;;;5.55;;
11827;SDS011;5971;49.646;8.568;2022-12-05T08:45:40;16.65;;;7.65;;
11827;SDS011;5971;49.646;8.568;2022-12-05T08:48:41;20.50;;;8.10;;
11827;SDS011;5971;49.646;8.568;2022-12-05T08:51:43;15.50;;;5.78;;
11827;SDS011;5971;49.646;8.568;2022-12-05T08:54:44;20.08;;;7.35;;
11827;SDS011;5971;49.646;8.568;2022-12-05T08:57:46;14.10;;;7.57;;
11827;SDS011;5971;49.646;8.568;2022-12-05T09:00:47;16.58;;;6.85;;
11827;SDS011;5971;49.646;8.568;2022-12-05T09:03:48;14.82;;;6.28;;
11827;SDS011;5971;49.646;8.568;2022-12-05T09:06:49;10.65;;;4.72;;
11827;SDS011;5971;49.646;8.568;2022-12-05T09:09:51;9.55;;;5.03;;
11827;SDS011;5971;49.646;8.568;2022-12-05T09:12:53;8.88;;;4.72;;
11827;SDS011;5971;49.646;8.568;2022-12-05T09:15:54;15.80;;;5.25;;
11827;SDS011;5971;49.646;8.568;2022-12-05T09:18:56;8.88;;;5.25;;
11827;SDS011;5971;49.646;8.568;2022-12-05T09:21:57;12.00;;;5.35;;
11827;SDS011;5971;49.646;8.568;2022-12-05T09:24:59;8.23;;;4.47;;
11827;SDS011;5971;49.646;8.568;2022-12-05T09:28:03;17.88;;;5.15;;
11827;SDS011;5971;49.646;8.568;2022-12-05T09:31:08;11.38;;;5.82;;
11827;SDS011;5971;49.646;8.568;2022-12-05T09:34:11;13.38;;;4.82;;
11827;SDS011;5971;49.646;8.568;2022-12-05T09:37:14;12.45;;;5.82;;
11827;SDS011;5971;49.646;8.568;2022-12-05T09:40:37;10.07;;;4.45;;
11827;SDS011;5971;49.646;8.568;2022-12-05T09:43:49;12.63;;;5.20;;
11827;SDS011;5971;49.646;8.568;2022-12-05T09:46:53;11.93;;;4.82;;
11827;SDS011;5971;49.646;8.568;2022-12-05T09:52:59;9.88;;;5.90;;
11827;SDS011;5971;49.646;8.568;2022-12-05T09:59:03;6.95;;;3.80;;
11827;SDS011;5971;49.646;8.568;2022-12-05T10:05:39;10.35;;;5.80;;
11827;SDS011;5971;49.646;8.568;2022-12-05T10:12:29;12.10;;;5.30;;
11827;SDS011;5971;49.646;8.568;2022-12-05T10:15:39;11.77;;;5.18;;
11827;SDS011;5971;49.646;8.568;2022-12-05T10:18:47;11.23;;;7.07;;
11827;SDS011;5971;49.646;8.568;2022-12-05T10:24:53;14.20;;;6.57;;
11827;SDS011;5971;49.646;8.568;2022-12-05T10:28:00;12.52;;;4.90;;
11827;SDS011;5971;49.646;8.568;2022-12-05T10:31:03;14.25;;;5.32;;
11827;SDS011;5971;49.646;8.568;2022-12-05T10:34:11;14.90;;;6.97;;
11827;SDS011;5971;49.646;8.568;2022-12-05T10:37:21;10.85;;;3.65;;
11827;SDS011;5971;49.646;8.568;2022-12-05T10:40:28;13.13;;;6.32;;
11827;SDS011;5971;49.646;8.568;2022-12-05T10:43:33;9.95;;;5.63;;
11827;SDS011;5971;49.646;8.568;2022-12-05T10:46:35;16.05;;;6.18;;
11827;SDS011;5971;49.646;8.568;2022-12-05T10:49:36;8.10;;;4.25;;
11827;SDS011;5971;49.646;8.568;2022-12-05T10:52:38;13.20;;;5.40;;
11827;SDS011;5971;49.646;8.568;2022-12-05T10:55:40;13.38;;;6.20;;
11827;SDS011;5971;49.646;8.568;2022-12-05T10:59:02;14.35;;;6.00;;
11827;SDS011;5971;49.646;8.568;2022-12-05T11:02:11;15.90;;;6.13;;
11827;SDS011;5971;49.646;8.568;2022-12-05T11:05:25;10.27;;;3.85;;
11827;SDS011;5971;49.646;8.568;2022-12-05T11:08:30;11.05;;;4.95;;
11827;SDS011;5971;49.646;8.568;2022-12-05T11:18:18;12.18;;;4.57;;
11827;SDS011;5971;49.646;8.568;2022-12-05T11:21:19;12.40;;;4.15;;
11827;SDS011;5971;49.646;8.568;2022-12-05T11:27:30;12.77;;;6.20;;
11827;SDS011;5971;49.646;8.568;2022-12-05T11:30:32;15.60;;;5.93;;
11827;SDS011;5971;49.646;8.568;2022-12-05T11:33:34;9.55;;;4.63;;
11827;SDS011;5971;49.646;8.568;2022-12-05T11:36:37;15.73;;;5.93;;
11827;SDS011;5971;49.646;8.568;2022-12-05T11:39:39;12.02;;;6.50;;
11827;SDS011;5971;49.646;8.568;2022-12-05T11:45:54;11.27;;;5.70;;
11827;SDS011;5971;49.646;8.568;2022-12-05T11:49:19;14.40;;;6.45;;
11827;SDS011;5971;49.646;8.568;2022-12-05T11:55:50;11.00;;;6.65;;
11827;SDS011;5971;49.646;8.568;2022-12-05T11:59:07;10.00;;;3.95;;
11827;SDS011;5971;49.646;8.568;2022-12-05T12:02:16;11.80;;;3.67;;
11827;SDS011;5971;49.646;8.568;2022-12-05T12:08:30;10.52;;;4.55;;
11827;SDS011;5971;49.646;8.568;2022-12-05T12:11:36;11.40;;;5.43;;
11827;SDS011;5971;49.646;8.568;2022-12-05T12:14:55;15.32;;;6.85;;
11827;SDS011;5971;49.646;8.568;2022-12-05T12:21:27;8.77;;;3.88;;
11827;SDS011;5971;49.646;8.568;2022-12-05T12:47:22;11.10;;;5.82;;
11827;SDS011;5971;49.646;8.568;2022-12-05T12:50:30;9.82;;;5.05;;
11827;SDS011;5971;49.646;8.568;2022-12-05T13:03:19;11.43;;;5.72;;
11827;SDS011;5971;49.646;8.568;2022-12-05T13:06:25;12.05;;;6.63;;
11827;SDS011;5971;49.646;8.568;2022-12-05T13:12:30;11.32;;;5.85;;
11827;SDS011;5971;49.646;8.568;2022-12-05T13:15:34;12.05;;;6.15;;
11827;SDS011;5971;49.646;8.568;2022-12-05T13:18:36;13.65;;;6.35;;
11827;SDS011;5971;49.646;8.568;2022-12-05T13:21:37;9.48;;;4.80;;
11827;SDS011;5971;49.646;8.568;2022-12-05T13:24:38;10.32;;;6.57;;
11827;SDS011;5971;49.646;8.568;2022-12-05T13:27:54;12.90;;;6.97;;
11827;SDS011;5971;49.646;8.568;2022-12-05T13:30:57;11.55;;;5.25;;
11827;SDS011;5971;49.646;8.568;2022-12-05T13:34:02;16.25;;;7.15;;
11827;SDS011;5971;49.646;8.568;2022-12-05T13:37:20;13.38;;;5.70;;
11827;SDS011;5971;49.646;8.568;2022-12-05T13:40:48;13.18;;;6.55;;
11827;SDS011;5971;49.646;8.568;2022-12-05T13:44:08;14.80;;;6.78;;
11827;SDS011;5971;49.646;8.568;2022-12-05T13:47:24;11.25;;;5.22;;
11827;SDS011;5971;49.646;8.568;2022-12-05T13:50:28;10.93;;;6.32;;
11827;SDS011;5971;49.646;8.568;2022-12-05T13:53:38;11.45;;;6.13;;
11827;SDS011;5971;49.646;8.568;2022-12-05T13:56:56;14.30;;;7.05;;
11827;SDS011;5971;49.646;8.568;2022-12-05T14:03:14;14.93;;;6.10;;
11827;SDS011;5971;49.646;8.568;2022-12-05T14:09:48;12.27;;;5.18;;
11827;SDS011;5971;49.646;8.568;2022-12-05T14:12:54;13.90;;;5.63;;
11827;SDS011;5971;49.646;8.568;2022-12-05T14:32:30;11.45;;;5.38;;
11827;SDS011;5971;49.646;8.568;2022-12-05T14:35:45;8.45;;;4.78;;
11827;SDS011;5971;49.646;8.568;2022-12-05T14:38:48;11.88;;;5.57;;
11827;SDS011;5971;49.646;8.568;2022-12-05T14:41:54;11.05;;;4.30;;
11827;SDS011;5971;49.646;8.568;2022-12-05T14:44:57;10.85;;;5.88;;
11827;SDS011;5971;49.646;8.568;2022-12-05T14:48:00;13.63;;;5.50;;
11827;SDS011;5971;49.646;8.568;2022-12-05T14:54:23;7.05;;;3.47;;
11827;SDS011;5971;49.646;8.568;2022-12-05T14:57:24;6.05;;;3.40;;
11827;SDS011;5971;49.646;8.568;2022-12-05T15:00:26;4.43;;;2.38;;
11827;SDS011;5971;49.646;8.568;2022-12-05T15:03:30;2.88;;;1.35;;
11827;SDS011;5971;49.646;8.568;2022-12-05T15:06:33;1.55;;;1.15;;
11827;SDS011;5971;49.646;8.568;2022-12-05T15:12:50;2.03;;;1.48;;
11827;SDS011;5971;49.646;8.568;2022-12-05T15:15:57;1.88;;;1.08;;
11827;SDS011;5971;49.646;8.568;2022-12-05T15:19:02;2.72;;;1.35;;
11827;SDS011;5971;49.646;8.568;2022-12-05T15:22:05;2.60;;;1.20;;
11827;SDS011;5971;49.646;8.568;2022-12-05T15:32:23;2.85;;;1.67;;
11827;SDS011;5971;49.646;8.568;2022-12-05T15:35:26;1.30;;;0.70;;
11827;SDS011;5971;49.646;8.568;2022-12-05T15:38:29;1.90;;;1.35;;
11827;SDS011;5971;49.646;8.568;2022-12-05T15:41:32;1.98;;;1.40;;
11827;SDS011;5971;49.646;8.568;2022-12-05T15:44:34;2.05;;;1.23;;
11827;SDS011;5971;49.646;8.568;2022-12-05T15:48:12;2.33;;;1.52;;
11827;SDS011;5971;49.646;8.568;2022-12-05T15:51:06;3.58;;;1.70;;
11827;SDS011;5971;49.646;8.568;2022-12-05T15:54:12;2.58;;;1.30;;
11827;SDS011;5971;49.646;8.568;2022-12-05T15:57:16;4.55;;;1.50;;
11827;SDS011;5971;49.646;8.568;2022-12-05T16:00:19;2.65;;;1.45;;
11827;SDS011;5971;49.646;8.568;2022-12-05T16:03:24;2.38;;;1.55;;
11827;SDS011;5971;49.646;8.568;2022-12-05T16:06:30;3.78;;;2.03;;
11827;SDS011;5971;49.646;8.568;2022-12-05T16:09:36;2.45;;;1.45;;
11827;SDS011;5971;49.646;8.568;2022-12-05T16:15:41;2.78;;;2.03;;
11827;SDS011;5971;49.646;8.568;2022-12-05T16:18:51;3.78;;;2.17;;
11827;SDS011;5971;49.646;8.568;2022-12-05T16:22:00;8.65;;;2.65;;
11827;SDS011;5971;49.646;8.568;2022-12-05T16:25:10;5.65;;;3.28;;
11827;SDS011;5971;49.646;8.568;2022-12-05T16:28:13;4.07;;;2.20;;
11827;SDS011;5971;49.646;8.568;2022-12-05T16:31:16;3.40;;;2.10;;
11827;SDS011;5971;49.646;8.568;2022-12-05T16:34:18;3.60;;;2.03;;
11827;SDS011;5971;49.646;8.568;2022-12-05T16:37:23;7.78;;;2.95;;
11827;SDS011;5971;49.646;8.568;2022-12-05T16:40:25;12.20;;;5.22;;
11827;SDS011;5971;49.646;8.568;2022-12-05T16:49:33;3.47;;;1.88;;
11827;SDS011;5971;49.646;8.568;2022-12-05T16:52:35;2.80;;;1.92;;
11827;SDS011;5971;49.646;8.568;2022-12-05T16:55:36;5.43;;;3.35;;
11827;SDS011;5971;49.646;8.568;2022-12-05T16:58:38;3.03;;;1.98;;
11827;SDS011;5971;49.646;8.568;2022-12-05T17:01:39;4.68;;;2.58;;
11827;SDS011;5971;49.646;8.568;2022-12-05T17:04:41;3.58;;;2.15;;
11827;SDS011;5971;49.646;8.568;2022-12-05T17:07:42;5.45;;;1.88;;
11827;SDS011;5971;49.646;8.568;2022-12-05T17:10:43;6.13;;;2.78;;
11827;SDS011;5971;49.646;8.568;2022-12-05T17:13:45;4.68;;;3.17;;
11827;SDS011;5971;49.646;8.568;2022-12-05T17:16:48;4.28;;;2.90;;
11827;SDS011;5971;49.646;8.568;2022-12-05T17:19:49;4.10;;;2.33;;
11827;SDS011;5971;49.646;8.568;2022-12-05T17:22:51;4.00;;;2.25;;
11827;SDS011;5971;49.646;8.568;2022-12-05T17:25:53;6.38;;;3.25;;
11827;SDS011;5971;49.646;8.568;2022-12-05T17:28:55;10.07;;;3.95;;
11827;SDS011;5971;49.646;8.568;2022-12-05T17:31:56;8.05;;;3.10;;
11827;SDS011;5971;49.646;8.568;2022-12-05T17:34:57;8.82;;;3.65;;
11827;SDS011;5971;49.646;8.568;2022-12-05T17:38:06;6.57;;;2.50;;
11827;SDS011;5971;49.646;8.568;2022-12-05T17:41:12;4.78;;;2.33;;
11827;SDS011;5971;49.646;8.568;2022-12-05T17:44:14;3.95;;;2.58;;
11827;SDS011;5971;49.646;8.568;2022-12-05T17:47:15;3.60;;;2.10;;
11827;SDS011;5971;49.646;8.568;2022-12-05T17:50:18;3.40;;;2.00;;
11827;SDS011;5971;49.646;8.568;2022-12-05T17:53:21;3.50;;;2.00;;
11827;SDS011;5971;49.646;8.568;2022-12-05T17:56:23;3.63;;;1.83;;
11827;SDS011;5971;49.646;8.568;2022-12-05T17:59:24;4.60;;;2.75;;
11827;SDS011;5971;49.646;8.568;2022-12-05T18:02:26;3.25;;;1.75;;
11827;SDS011;5971;49.646;8.568;2022-12-05T18:05:27;3.50;;;1.85;;
11827;SDS011;5971;49.646;8.568;2022-12-05T18:08:28;5.35;;;2.85;;
11827;SDS011;5971;49.646;8.568;2022-12-05T18:11:30;4.90;;;3.13;;
11827;SDS011;5971;49.646;8.568;2022-12-05T18:14:31;5.05;;;3.17;;
11827;SDS011;5971;49.646;8.568;2022-12-05T18:17:36;5.35;;;2.38;;
11827;SDS011;5971;49.646;8.568;2022-12-05T18:20:37;4.97;;;2.50;;
11827;SDS011;5971;49.646;8.568;2022-12-05T18:23:38;5.32;;;3.25;;
11827;SDS011;5971;49.646;8.568;2022-12-05T18:26:40;7.00;;;3.17;;
11827;SDS011;5971;49.646;8.568;2022-12-05T18:29:41;8.40;;;3.95;;
11827;SDS011;5971;49.646;8.568;2022-12-05T18:32:42;6.18;;;3.50;;
11827;SDS011;5971;49.646;8.568;2022-12-05T18:35:44;6.43;;;3.25;;
11827;SDS011;5971;49.646;8.568;2022-12-05T18:38:49;8.40;;;3.95;;
11827;SDS011;5971;49.646;8.568;2022-12-05T18:41:51;5.25;;;3.15;;
11827;SDS011;5971;49.646;8.568;2022-12-05T18:44:52;8.00;;;4.28;;
11827;SDS011;5971;49.646;8.568;2022-12-05T18:47:54;4.55;;;2.92;;
11827;SDS011;5971;49.646;8.568;2022-12-05T18:51:11;6.10;;;3.58;;
11827;SDS011;5971;49.646;8.568;2022-12-05T18:54:13;5.57;;;4.72;;
11827;SDS011;5971;49.646;8.568;2022-12-05T18:57:14;5.57;;;3.13;;
11827;SDS011;5971;49.646;8.568;2022-12-05T19:00:16;5.32;;;3.63;;
11827;SDS011;5971;49.646;8.568;2022-12-05T19:03:17;4.43;;;2.78;;
11827;SDS011;5971;49.646;8.568;2022-12-05T19:06:19;5.43;;;2.88;;
11827;SDS011;5971;49.646;8.568;2022-12-05T19:09:23;4.82;;;2.92;;
11827;SDS011;5971;49.646;8.568;2022-12-05T19:12:25;7.60;;;4.43;;
11827;SDS011;5971;49.646;8.568;2022-12-05T19:15:26;6.25;;;3.05;;
11827;SDS011;5971;49.646;8.568;2022-12-05T19:18:27;5.07;;;3.13;;
11827;SDS011;5971;49.646;8.568;2022-12-05T19:21:29;6.13;;;3.42;;
11827;SDS011;5971;49.646;8.568;2022-12-05T19:24:31;4.78;;;2.80;;
11827;SDS011;5971;49.646;8.568;2022-12-05T19:27:32;5.10;;;2.72;;
11827;SDS011;5971;49.646;8.568;2022-12-05T19:30:34;4.53;;;2.55;;
11827;SDS011;5971;49.646;8.568;2022-12-05T19:33:36;5.85;;;3.17;;
11827;SDS011;5971;49.646;8.568;2022-12-05T19:36:39;4.07;;;2.38;;
11827;SDS011;5971;49.646;8.568;2022-12-05T19:39:40;4.97;;;3.47;;
11827;SDS011;5971;49.646;8.568;2022-12-05T19:42:43;4.13;;;2.25;;
11827;SDS011;5971;49.646;8.568;2022-12-05T19:45:44;4.68;;;3.08;;
11827;SDS011;5971;49.646;8.568;2022-12-05T19:48:49;7.50;;;3.25;;
11827;SDS011;5971;49.646;8.568;2022-12-05T19:51:51;5.57;;;3.35;;
11827;SDS011;5971;49.646;8.568;2022-12-05T19:54:52;3.90;;;2.08;;
11827;SDS011;5971;49.646;8.568;2022-12-05T19:57:54;4.95;;;3.05;;
11827;SDS011;5971;49.646;8.568;2022-12-05T20:00:55;4.85;;;3.03;;
11827;SDS011;5971;49.646;8.568;2022-12-05T20:03:58;5.75;;;2.45;;
11827;SDS011;5971;49.646;8.568;2022-12-05T20:06:59;4.75;;;2.47;;
11827;SDS011;5971;49.646;8.568;2022-12-05T20:10:01;5.13;;;3.75;;
11827;SDS011;5971;49.646;8.568;2022-12-05T20:13:02;8.32;;;3.83;;
11827;SDS011;5971;49.646;8.568;2022-12-05T20:16:24;6.32;;;3.83;;
11827;SDS011;5971;49.646;8.568;2022-12-05T20:19:27;6.88;;;2.88;;
11827;SDS011;5971;49.646;8.568;2022-12-05T20:22:28;6.07;;;3.08;;
11827;SDS011;5971;49.646;8.568;2022-12-05T20:25:34;5.30;;;4.05;;
11827;SDS011;5971;49.646;8.568;2022-12-05T20:28:35;8.30;;;4.70;;
11827;SDS011;5971;49.646;8.568;2022-12-05T20:31:38;7.00;;;2.67;;
11827;SDS011;5971;49.646;8.568;2022-12-05T20:34:39;5.82;;;3.65;;
11827;SDS011;5971;49.646;8.568;2022-12-05T20:37:40;4.57;;;2.42;;
11827;SDS011;5971;49.646;8.568;2022-12-05T20:40:42;7.38;;;2.97;;
11827;SDS011;5971;49.646;8.568;2022-12-05T20:43:43;5.20;;;2.63;;
11827;SDS011;5971;49.646;8.568;2022-12-05T20:46:47;8.40;;;3.92;;
11827;SDS011;5971;49.646;8.568;2022-12-05T20:49:48;8.13;;;3.72;;
11827;SDS011;5971;49.646;8.568;2022-12-05T20:52:50;9.38;;;3.40;;
11827;SDS011;5971;49.646;8.568;2022-12-05T20:55:51;6.97;;;3.63;;
11827;SDS011;5971;49.646;8.568;2022-12-05T20:58:53;7.43;;;3.53;;
11827;SDS011;5971;49.646;8.568;2022-12-05T21:01:55;6.50;;;3.33;;